Time,TemperatureF,DewpointF,PressureIn,WindDirection,WindDirectionDegrees,WindSpeedMPH,WindSpeedGustMPH,Humidity,HourlyPrecipIn,Conditions,Clouds,dailyrainin,SoftwareType,DateUTC
2013-10-06 00:14:00,70.0,68.0,29.82,SSW,193,3.0,8.0,93,0.00,,,1.75,,2013-10-06 04:14:00,
2013-10-06 00:24:00,70.0,68.0,29.81,South,174,3.0,8.0,94,0.00,,,1.75,,2013-10-06 04:24:00,
2013-10-06 00:44:00,70.0,68.0,29.81,SSE,166,2.0,7.0,94,0.00,,,1.75,,2013-10-06 04:44:00,
2013-10-06 00:54:00,70.0,68.0,29.82,NNE,26,3.0,9.0,95,0.00,,,1.75,,2013-10-06 04:54:00,
2013-10-06 01:13:00,69.0,68.0,29.82,NW,320,1.0,10.0,95,0.00,,,1.75,,2013-10-06 05:13:00,
2013-10-06 01:23:00,69.0,68.0,29.82,WSW,238,1.0,7.0,95,0.00,,,1.75,,2013-10-06 05:23:00,
2013-10-06 01:43:00,69.0,68.0,29.83,NNE,26,2.0,6.0,95,0.00,,,1.75,,2013-10-06 05:43:00,
2013-10-06 01:52:00,69.0,68.0,29.83,SW,222,1.0,5.0,95,0.00,,,1.75,,2013-10-06 05:52:00,
2013-10-06 02:12:00,69.0,68.0,29.82,SW,236,0.0,3.0,95,0.00,,,1.75,,2013-10-06 06:12:00,
2013-10-06 02:22:00,69.0,68.0,29.82,SW,231,2.0,6.0,95,0.00,,,1.75,,2013-10-06 06:22:00,
2013-10-06 02:42:00,69.0,68.0,29.83,SW,215,1.0,5.0,96,0.00,,,1.75,,2013-10-06 06:42:00,
2013-10-06 02:52:00,68.0,67.0,29.82,SW,217,2.0,6.0,96,0.00,,,1.75,,2013-10-06 06:52:00,
2013-10-06 03:11:00,68.0,67.0,29.82,North,360,2.0,8.0,96,0.00,,,1.75,,2013-10-06 07:11:00,
2013-10-06 03:22:00,68.0,67.0,29.82,SSE,153,4.0,9.0,96,0.01,,,1.76,,2013-10-06 07:22:00,
2013-10-06 03:42:00,68.0,67.0,29.82,SSE,160,3.0,7.0,96,0.02,,,1.77,,2013-10-06 07:42:00,
2013-10-06 03:52:00,68.0,67.0,29.81,SW,232,3.0,7.0,96,0.02,,,1.77,,2013-10-06 07:52:00,
2013-10-06 04:12:00,67.0,66.0,29.81,South,172,2.0,6.0,96,0.03,,,1.78,,2013-10-06 08:12:00,
2013-10-06 04:22:00,67.0,66.0,29.80,ENE,78,3.0,7.0,96,0.02,,,1.78,,2013-10-06 08:22:00,
2013-10-06 04:42:00,67.0,66.0,29.80,South,172,3.0,6.0,97,0.02,,,1.79,,2013-10-06 08:42:00,
2013-10-06 04:52:00,67.0,66.0,29.79,SSW,195,3.0,7.0,97,0.02,,,1.79,,2013-10-06 08:52:00,
2013-10-06 05:11:00,67.0,66.0,29.78,SSW,212,3.0,9.0,97,0.02,,,1.80,,2013-10-06 09:11:00,
2013-10-06 05:22:00,67.0,66.0,29.78,South,188,4.0,8.0,97,0.03,,,1.81,,2013-10-06 09:22:00,
2013-10-06 05:43:00,67.0,66.0,29.78,West,262,2.0,7.0,97,0.04,,,1.83,,2013-10-06 09:43:00,
2013-10-06 05:53:00,67.0,66.0,29.78,NE,37,3.0,7.0,97,0.05,,,1.84,,2013-10-06 09:53:00,
2013-10-06 06:13:00,67.0,66.0,29.78,SSW,193,3.0,6.0,97,0.06,,,1.86,,2013-10-06 10:13:00,
2013-10-06 06:23:00,67.0,66.0,29.78,West,263,2.0,9.0,97,0.06,,,1.87,,2013-10-06 10:23:00,
2013-10-06 06:43:00,67.0,66.0,29.78,SE,130,3.0,8.0,97,0.05,,,1.88,,2013-10-06 10:43:00,
2013-10-06 06:53:00,66.0,65.0,29.77,SW,221,3.0,8.0,97,0.04,,,1.88,,2013-10-06 10:53:00,
2013-10-06 07:12:00,66.0,65.0,29.76,ESE,108,3.0,8.0,97,0.02,,,1.88,,2013-10-06 11:12:00,
2013-10-06 07:22:00,66.0,65.0,29.77,SSE,165,5.0,12.0,97,0.03,,,1.90,,2013-10-06 11:22:00,
2013-10-06 07:52:00,66.0,65.0,29.76,SW,217,3.0,8.0,97,0.05,,,1.93,,2013-10-06 11:52:00,
2013-10-06 08:12:00,66.0,65.0,29.75,SW,225,4.0,8.0,97,0.05,,,1.94,,2013-10-06 12:12:00,
2013-10-06 08:22:00,66.0,65.0,29.75,SSE,158,3.0,8.0,97,0.05,,,1.95,,2013-10-06 12:22:00,
2013-10-06 08:42:00,66.0,65.0,29.76,SSE,150,0.0,3.0,97,0.05,,,1.96,,2013-10-06 12:42:00,
2013-10-06 08:52:00,66.0,65.0,29.76,SE,143,1.0,4.0,97,0.04,,,1.97,,2013-10-06 12:52:00,
2013-10-06 09:11:00,66.0,65.0,29.76,SSW,199,1.0,4.0,97,0.03,,,1.97,,2013-10-06 13:11:00,
2013-10-06 09:21:00,66.0,65.0,29.75,SE,125,3.0,7.0,97,0.03,,,1.99,,2013-10-06 13:21:00,
2013-10-06 09:42:00,66.0,65.0,29.75,SE,139,3.0,7.0,97,0.04,,,2.00,,2013-10-06 13:42:00,
2013-10-06 09:52:00,66.0,65.0,29.74,SE,131,5.0,11.0,97,0.04,,,2.00,,2013-10-06 13:52:00,
2013-10-06 10:11:00,66.0,65.0,29.72,SSE,158,6.0,13.0,97,0.04,,,2.00,,2013-10-06 14:11:00,
2013-10-06 10:22:00,66.0,65.0,29.72,SSE,167,6.0,11.0,97,0.02,,,2.00,,2013-10-06 14:22:00,
2013-10-06 10:42:00,66.0,65.0,29.72,WNW,284,5.0,13.0,97,0.01,,,1.86,,2013-10-06 14:42:00,
2013-10-06 10:52:00,67.0,66.0,29.72,SSW,212,4.0,10.0,96,0.00,,,1.86,,2013-10-06 14:52:00,
2013-10-06 11:11:00,67.0,66.0,29.73,SE,136,5.0,12.0,95,0.01,,,1.87,,2013-10-06 15:11:00,
2013-10-06 11:22:00,67.0,66.0,29.73,SSE,166,6.0,13.0,95,0.01,,,1.87,,2013-10-06 15:22:00,
2013-10-06 11:43:00,67.0,66.0,29.72,SSW,199,7.0,14.0,95,0.01,,,0.83,,2013-10-06 15:43:00,
2013-10-06 11:54:00,66.0,65.0,29.72,South,189,5.0,13.0,95,0.02,,,0.84,,2013-10-06 15:54:00,
2013-10-06 12:12:00,66.0,65.0,29.72,SE,142,5.0,11.0,95,0.02,,,0.85,,2013-10-06 16:12:00,
2013-10-06 12:23:00,66.0,65.0,29.72,SSW,200,5.0,14.0,95,0.03,,,0.86,,2013-10-06 16:23:00,
2013-10-06 12:42:00,67.0,66.0,29.71,SSE,167,4.0,9.0,95,0.03,,,0.31,,2013-10-06 16:42:00,
2013-10-06 12:53:00,67.0,66.0,29.70,SSW,211,6.0,14.0,95,0.02,,,0.31,,2013-10-06 16:53:00,
2013-10-06 13:12:00,67.0,66.0,29.70,SSE,162,4.0,13.0,95,0.01,,,0.31,,2013-10-06 17:12:00,
2013-10-06 13:22:00,68.0,66.0,29.69,SW,215,5.0,11.0,93,0.00,,,0.31,,2013-10-06 17:22:00,
2013-10-06 13:42:00,68.0,66.0,29.68,SSW,197,4.0,12.0,93,0.00,,,0.31,,2013-10-06 17:42:00,
2013-10-06 13:52:00,69.0,66.0,29.67,SSE,162,7.0,16.0,91,0.00,,,0.31,,2013-10-06 17:52:00,
2013-10-06 14:12:00,69.0,66.0,29.67,SW,218,4.0,12.0,91,0.00,,,0.31,,2013-10-06 18:12:00,
2013-10-06 14:22:00,70.0,67.0,29.66,South,191,4.0,11.0,91,0.00,,,0.31,,2013-10-06 18:22:00,
2013-10-06 14:43:00,70.0,67.0,29.65,South,173,4.0,12.0,91,0.00,,,0.30,,2013-10-06 18:43:00,
2013-10-06 14:52:00,71.0,67.0,29.65,SSE,165,6.0,14.0,88,0.00,,,0.30,,2013-10-06 18:52:00,
2013-10-06 15:11:00,70.0,67.0,29.64,SW,219,5.0,15.0,90,0.01,,,0.31,,2013-10-06 19:11:00,
2013-10-06 15:22:00,69.0,66.0,29.63,South,173,5.0,12.0,91,0.01,,,0.31,,2013-10-06 19:22:00,
2013-10-06 15:42:00,69.0,66.0,29.64,WNW,288,5.0,11.0,90,0.02,,,0.32,,2013-10-06 19:42:00,
2013-10-06 15:52:00,63.0,61.0,29.64,WSW,257,3.0,7.0,93,0.04,,,0.34,,2013-10-06 19:52:00,
2013-10-06 16:11:00,61.0,59.0,29.65,West,266,3.0,12.0,94,0.07,,,0.38,,2013-10-06 20:11:00,
2013-10-06 16:22:00,60.0,59.0,29.65,West,263,1.0,8.0,96,0.09,,,0.40,,2013-10-06 20:22:00,
2013-10-06 16:42:00,60.0,59.0,29.66,WNW,285,3.0,6.0,96,0.13,,,0.45,,2013-10-06 20:42:00,
2013-10-06 16:52:00,60.0,59.0,29.65,WNW,296,3.0,7.0,97,0.13,,,0.47,,2013-10-06 20:52:00,
2013-10-06 17:12:00,60.0,59.0,29.66,SW,236,1.0,7.0,97,0.14,,,0.52,,2013-10-06 21:12:00,
2013-10-06 17:22:00,59.0,58.0,29.66,WSW,246,3.0,6.0,97,0.13,,,0.53,,2013-10-06 21:22:00,
2013-10-06 17:44:00,60.0,59.0,29.66,SW,226,1.0,5.0,97,0.09,,,0.54,,2013-10-06 21:44:00,
2013-10-06 17:54:00,60.0,59.0,29.66,WSW,252,3.0,8.0,96,0.07,,,0.54,,2013-10-06 21:54:00,
2013-10-06 18:13:00,59.0,58.0,29.66,WSW,240,2.0,7.0,95,0.01,,,0.54,,2013-10-06 22:13:00,
2013-10-06 18:24:00,59.0,58.0,29.67,West,274,1.0,9.0,95,0.01,,,0.54,,2013-10-06 22:24:00,
2013-10-06 18:43:00,59.0,57.0,29.68,West,269,4.0,12.0,94,0.00,,,0.54,,2013-10-06 22:43:00,
2013-10-06 18:53:00,59.0,58.0,29.67,WSW,248,0.0,7.0,95,0.00,,,0.54,,2013-10-06 22:53:00,
2013-10-06 19:12:00,59.0,57.0,29.68,WSW,256,1.0,5.0,94,0.00,,,0.54,,2013-10-06 23:12:00,
2013-10-06 19:22:00,58.0,57.0,29.71,SW,229,2.0,4.0,95,0.00,,,0.54,,2013-10-06 23:22:00,
2013-10-06 19:53:00,58.0,56.0,29.72,SW,224,0.0,4.0,94,0.00,,,0.54,,2013-10-06 23:53:00,
2013-10-06 20:12:00,58.0,57.0,29.70,West,276,0.0,3.0,95,0.00,,,0.54,,2013-10-07 00:12:00,
2013-10-06 20:22:00,57.0,56.0,29.70,WSW,238,0.0,1.0,95,0.00,,,0.54,,2013-10-07 00:22:00,
2013-10-06 20:42:00,57.0,56.0,29.69,WSW,238,0.0,0.0,96,0.00,,,0.54,,2013-10-07 00:42:00,
2013-10-06 20:52:00,57.0,56.0,29.70,WSW,238,0.0,0.0,96,0.00,,,0.54,,2013-10-07 00:52:00,
2013-10-06 21:11:00,57.0,56.0,29.71,WSW,253,0.0,1.0,96,0.00,,,0.54,,2013-10-07 01:11:00,
2013-10-06 21:22:00,57.0,56.0,29.71,WSW,253,0.0,0.0,97,0.00,,,0.54,,2013-10-07 01:22:00,
2013-10-06 21:42:00,57.0,56.0,29.72,SW,219,0.0,1.0,97,0.00,,,0.54,,2013-10-07 01:42:00,
2013-10-06 21:53:00,57.0,56.0,29.73,SSE,159,0.0,4.0,97,0.00,,,0.54,,2013-10-07 01:53:00,
2013-10-06 22:12:00,57.0,56.0,29.71,West,268,0.0,3.0,97,0.00,,,0.54,,2013-10-07 02:12:00,
2013-10-06 22:22:00,57.0,56.0,29.72,SE,142,1.0,2.0,97,0.00,,,0.54,,2013-10-07 02:22:00,
2013-10-06 22:42:00,57.0,56.0,29.72,SSW,210,1.0,5.0,96,0.00,,,0.54,,2013-10-07 02:42:00,
2013-10-06 22:53:00,57.0,56.0,29.72,ESE,118,2.0,5.0,96,0.00,,,0.54,,2013-10-07 02:53:00,
2013-10-06 23:12:00,57.0,56.0,29.72,SW,221,1.0,3.0,96,0.00,,,0.54,,2013-10-07 03:12:00,
2013-10-06 23:22:00,57.0,56.0,29.72,SW,217,1.0,3.0,96,0.00,,,0.54,,2013-10-07 03:22:00,
2013-10-06 23:44:00,56.0,52.0,29.73,SW,221,5.0,21.0,88,0.00,,,0.54,,2013-10-07 03:44:00,
2013-10-06 23:54:00,54.0,49.0,29.73,SW,232,4.0,15.0,83,0.00,,,0.54,,2013-10-07 03:54:00,